Woodland Hills, California
Current Conditions -  °F | °C
As of 11:51 AM on Friday 28 Nov 2014 (Local Time) from KVNY Reporting Station
Clear Clear  
Wind Chill: 81°   Ceiling: Unl
Heat Index: 81°   Visibility: 10mi
Dew Point: 22°   Wind: 6mph
Humidity: 11%   Direction: NA
Pressure: 29.95"   Gusts: NA
Location:  34.17°N, 118.6°W
Report Text: KVNY 281951Z VRB05KT 10SM CLR 27/M06 A2995 RMK AO2 SLP136 T02721056
Loading
Personal Weather Stations






























Interactive Weather Map New forecast layout! Learn more

10-Day Weather Forecast

Advertisements
Track Severe Weather on mobile